createdAt,value
2022-10-03T00:01:27.599Z,12.00
2022-10-03T00:04:09.796Z,12.00
2022-10-03T00:06:56.662Z,12.00
2022-10-03T00:09:47.338Z,12.00
2022-10-03T00:12:42.371Z,12.00
2022-10-03T00:15:13.579Z,12.00
2022-10-03T00:17:50.597Z,11.90
2022-10-03T00:20:45.121Z,12.00
2022-10-03T00:23:16.839Z,11.90
2022-10-03T00:25:48.427Z,11.90
2022-10-03T00:28:36.371Z,11.90
2022-10-03T00:31:17.667Z,11.90
2022-10-03T00:34:01.343Z,12.00
2022-10-03T00:37:14.434Z,12.00
2022-10-03T00:40:05.180Z,12.00
2022-10-03T00:42:57.178Z,12.00
2022-10-03T00:46:01.221Z,11.90
2022-10-03T00:49:00.920Z,11.90
2022-10-03T00:51:51.763Z,11.90
2022-10-03T00:54:28.967Z,11.90
2022-10-03T00:57:14.404Z,11.90
2022-10-03T01:00:16.128Z,11.90
2022-10-03T01:02:47.105Z,11.90
2022-10-03T01:05:31.657Z,11.90
2022-10-03T01:08:39.766Z,11.90
2022-10-03T01:11:35.962Z,11.90
2022-10-03T01:14:11.370Z,11.90
2022-10-03T01:17:27.977Z,11.90
2022-10-03T01:20:16.792Z,11.90
2022-10-03T01:23:11.231Z,11.80
2022-10-03T01:26:00.380Z,11.90
2022-10-03T01:29:15.213Z,11.90
2022-10-03T01:32:06.699Z,11.90
2022-10-03T01:34:57.010Z,11.90
2022-10-03T01:37:39.967Z,11.80
2022-10-03T01:40:31.951Z,11.80
2022-10-03T01:43:22.749Z,11.80
2022-10-03T01:46:01.140Z,11.80
2022-10-03T01:48:45.727Z,11.80
2022-10-03T01:51:24.695Z,11.80
2022-10-03T01:54:14.964Z,11.80
2022-10-03T01:57:09.551Z,11.80
2022-10-03T01:59:46.387Z,11.80
2022-10-03T02:02:21.288Z,11.80
2022-10-03T02:05:09.667Z,11.80
2022-10-03T02:07:55.191Z,11.80
2022-10-03T02:10:43.472Z,11.80
2022-10-03T02:13:30.788Z,11.80
2022-10-03T02:16:02.515Z,11.80
2022-10-03T02:19:03.194Z,11.80
2022-10-03T02:21:34.247Z,11.70
2022-10-03T02:24:20.513Z,11.70
2022-10-03T02:27:05.253Z,11.70
2022-10-03T02:29:55.947Z,11.70
2022-10-03T02:32:47.087Z,11.70
2022-10-03T02:35:23.848Z,11.60
2022-10-03T02:38:26.722Z,11.60
2022-10-03T02:41:18.619Z,11.60
2022-10-03T02:44:22.949Z,11.60
2022-10-03T02:47:23.552Z,11.60
2022-10-03T02:50:11.190Z,11.50
2022-10-03T02:53:30.403Z,11.50
2022-10-03T02:56:25.490Z,11.50
2022-10-03T02:59:02.647Z,11.40
2022-10-03T03:02:04.244Z,11.40
2022-10-03T03:04:48.644Z,11.40
2022-10-03T03:07:38.896Z,11.40
2022-10-03T03:10:20.488Z,11.40
2022-10-03T03:13:32.371Z,11.40
2022-10-03T03:16:24.188Z,11.40
2022-10-03T03:19:18.635Z,11.50
2022-10-03T03:22:08.496Z,11.40
2022-10-03T03:24:45.171Z,11.40
2022-10-03T03:27:23.714Z,11.40
2022-10-03T03:30:05.622Z,11.40
2022-10-03T03:33:04.908Z,11.40
2022-10-03T03:35:37.455Z,11.30
2022-10-03T03:38:28.262Z,11.30
2022-10-03T03:41:09.803Z,11.30
2022-10-03T03:43:48.366Z,11.30
2022-10-03T03:46:21.087Z,11.20
2022-10-03T03:49:04.892Z,11.20
2022-10-03T03:51:40.765Z,11.20
2022-10-03T03:54:22.258Z,11.10
2022-10-03T03:57:07.702Z,11.10
2022-10-03T04:00:02.082Z,11.10
2022-10-03T04:03:02.524Z,11.10
2022-10-03T04:05:57.583Z,11.00
2022-10-03T04:08:36.403Z,11.00
2022-10-03T04:11:28.385Z,11.00
2022-10-03T04:14:12.056Z,10.90
2022-10-03T04:17:17.411Z,10.80
2022-10-03T04:20:12.772Z,10.70
2022-10-03T04:22:59.157Z,10.70
2022-10-03T04:25:50.067Z,10.60
2022-10-03T04:28:27.261Z,10.60
2022-10-03T04:31:06.555Z,10.50
2022-10-03T04:33:54.844Z,10.50
2022-10-03T04:36:48.795Z,10.50
2022-10-03T04:39:29.442Z,10.50
2022-10-03T04:42:27.053Z,10.40
2022-10-03T04:44:59.702Z,10.40
2022-10-03T04:47:28.681Z,10.30
2022-10-03T04:50:42.948Z,10.30
2022-10-03T04:53:46.061Z,10.30
2022-10-03T04:56:30.749Z,10.30
2022-10-03T04:59:19.686Z,10.30
2022-10-03T05:01:54.797Z,10.20
2022-10-03T05:04:30.264Z,10.20
2022-10-03T05:07:29.425Z,10.20
2022-10-03T05:10:16.857Z,10.20
2022-10-03T05:13:05.307Z,10.10
2022-10-03T05:15:43.517Z,10.10
2022-10-03T05:18:37.521Z,10.10
2022-10-03T05:21:28.775Z,10.10
2022-10-03T05:24:03.093Z,10.10
2022-10-03T05:26:51.717Z,10.10
2022-10-03T05:29:44.128Z,10.00
2022-10-03T05:32:16.534Z,10.00
2022-10-03T05:35:17.336Z,10.00
2022-10-03T05:38:20.463Z,10.00
2022-10-03T05:40:59.157Z,10.00
2022-10-03T05:43:46.113Z,10.00
2022-10-03T05:46:21.261Z,10.00
2022-10-03T05:48:56.173Z,10.00
2022-10-03T05:51:41.641Z,10.00
2022-10-03T05:54:27.144Z,10.00
2022-10-03T05:57:24.531Z,9.90
2022-10-03T06:00:11.655Z,9.90
2022-10-03T06:02:59.646Z,9.90
2022-10-03T06:05:53.667Z,10.00
2022-10-03T06:09:00.113Z,10.00
2022-10-03T06:12:04.366Z,10.00
2022-10-03T06:15:04.969Z,10.00
2022-10-03T06:17:46.569Z,10.00
2022-10-03T06:20:41.326Z,10.10
2022-10-03T06:23:29.726Z,10.20
2022-10-03T06:26:28.873Z,10.20
2022-10-03T06:29:27.004Z,10.30
2022-10-03T06:32:05.574Z,10.30
2022-10-03T06:34:50.615Z,10.40
2022-10-03T06:37:38.315Z,10.50
2022-10-03T06:40:35.885Z,10.70
2022-10-03T06:43:41.862Z,10.80
2022-10-03T06:46:29.706Z,11.00
2022-10-03T06:49:33.160Z,11.10
2022-10-03T06:52:15.203Z,11.30
2022-10-03T06:55:04.358Z,11.40
2022-10-03T06:57:56.100Z,11.60
2022-10-03T07:00:45.000Z,11.70
2022-10-03T07:03:30.464Z,11.80
2022-10-03T07:06:06.782Z,11.90
2022-10-03T07:09:21.709Z,11.90
2022-10-03T07:11:56.872Z,11.90
2022-10-03T07:15:08.206Z,12.00
2022-10-03T07:18:18.368Z,12.10
2022-10-03T07:21:17.011Z,12.20
2022-10-03T07:23:49.895Z,12.20
2022-10-03T07:26:47.627Z,12.10
2022-10-03T07:29:35.042Z,12.20
2022-10-03T07:32:24.748Z,12.20
2022-10-03T07:35:20.804Z,12.30
2022-10-03T07:38:53.637Z,12.40
2022-10-03T07:41:39.006Z,12.60
2022-10-03T07:44:18.716Z,13.00
2022-10-03T07:47:04.173Z,13.30
2022-10-03T07:50:23.522Z,13.60
2022-10-03T07:53:08.723Z,13.80
2022-10-03T07:55:50.314Z,14.00
2022-10-03T07:59:18.241Z,14.20
2022-10-03T08:02:21.339Z,14.40
2022-10-03T08:05:28.231Z,14.50
2022-10-03T08:08:16.267Z,14.70
2022-10-03T08:11:25.980Z,14.80
2022-10-03T08:14:27.574Z,14.80
2022-10-03T08:16:57.180Z,14.90
2022-10-03T08:20:00.750Z,15.10
2022-10-03T08:22:53.852Z,15.10
2022-10-03T08:25:41.794Z,15.20
2022-10-03T08:28:30.108Z,15.40
2022-10-03T08:31:27.022Z,15.40
2022-10-03T08:33:59.449Z,15.60
2022-10-03T08:36:42.479Z,15.70
2022-10-03T08:39:26.367Z,15.70
2022-10-03T08:42:05.019Z,15.80
2022-10-03T08:45:08.324Z,15.90
2022-10-03T08:47:57.110Z,16.00
2022-10-03T08:51:01.742Z,16.00
2022-10-03T08:53:48.159Z,16.10
2022-10-03T08:56:39.803Z,16.10
2022-10-03T08:59:24.630Z,16.20
2022-10-03T09:02:06.831Z,16.30
2022-10-03T09:04:52.247Z,16.40
2022-10-03T09:07:25.690Z,16.50
2022-10-03T09:10:16.247Z,16.50
2022-10-03T09:12:57.935Z,16.60
2022-10-03T09:15:55.531Z,16.80
2022-10-03T09:18:51.287Z,16.90
2022-10-03T09:21:38.992Z,17.10
2022-10-03T09:24:25.386Z,17.10
2022-10-03T09:27:20.907Z,17.10
2022-10-03T09:30:24.749Z,17.00
2022-10-03T09:33:16.123Z,17.10
2022-10-03T09:36:08.963Z,17.20
2022-10-03T09:39:07.119Z,17.20
2022-10-03T09:41:59.057Z,17.40
2022-10-03T09:44:34.599Z,17.50
2022-10-03T09:47:27.884Z,17.50
2022-10-03T09:50:31.956Z,17.50
2022-10-03T09:53:27.868Z,17.60
2022-10-03T09:56:13.148Z,17.60
2022-10-03T09:58:54.634Z,17.60
2022-10-03T10:01:40.948Z,17.60
2022-10-03T10:04:53.274Z,17.70
2022-10-03T10:07:45.906Z,17.90
2022-10-03T10:10:40.680Z,18.00
2022-10-03T10:14:03.270Z,18.20
2022-10-03T10:16:49.116Z,18.30
2022-10-03T10:19:34.786Z,18.40
2022-10-03T10:22:16.509Z,18.40
2022-10-03T10:25:06.638Z,18.40
2022-10-03T10:27:55.147Z,18.50
2022-10-03T10:30:42.045Z,18.60
2022-10-03T10:33:24.178Z,18.70
2022-10-03T10:36:16.778Z,18.60
2022-10-03T10:39:02.279Z,18.60
2022-10-03T10:41:28.835Z,18.60
2022-10-03T10:44:27.635Z,18.60
2022-10-03T10:47:33.412Z,18.70
2022-10-03T10:50:28.735Z,18.70
2022-10-03T10:53:37.446Z,18.90
2022-10-03T10:56:27.245Z,19.00
2022-10-03T10:59:33.261Z,19.10
2022-10-03T11:02:42.603Z,19.10
2022-10-03T11:05:29.670Z,19.10
2022-10-03T11:08:26.999Z,19.10
2022-10-03T11:11:15.111Z,19.10
2022-10-03T11:14:03.302Z,19.10
2022-10-03T11:17:17.767Z,19.10
2022-10-03T11:20:25.812Z,19.20
2022-10-03T11:23:11.224Z,19.40
2022-10-03T11:25:44.221Z,19.40
2022-10-03T11:28:34.775Z,19.40
2022-10-03T11:32:02.670Z,19.40
2022-10-03T11:34:59.582Z,19.50
2022-10-03T11:37:39.311Z,19.50
2022-10-03T11:40:11.563Z,19.60
2022-10-03T11:43:06.839Z,19.50
2022-10-03T11:45:46.972Z,19.50
2022-10-03T11:48:14.558Z,19.50
2022-10-03T11:50:45.367Z,19.50
2022-10-03T11:53:21.529Z,19.70
2022-10-03T11:55:54.347Z,19.90
2022-10-03T11:58:23.710Z,20.00
2022-10-03T12:01:14.074Z,20.10
2022-10-03T12:04:03.766Z,20.20
2022-10-03T12:06:57.126Z,20.20
2022-10-03T12:09:44.474Z,20.20
2022-10-03T12:12:29.628Z,20.30
2022-10-03T12:15:17.804Z,20.20
2022-10-03T12:17:56.570Z,20.10
2022-10-03T12:21:00.902Z,20.10
2022-10-03T12:23:53.914Z,20.00
2022-10-03T12:26:37.432Z,20.00
2022-10-03T12:29:07.545Z,20.00
2022-10-03T12:31:41.485Z,20.00
2022-10-03T12:34:28.189Z,20.10
2022-10-03T12:37:15.899Z,20.10
2022-10-03T12:40:05.783Z,20.10
2022-10-03T12:42:51.519Z,20.30
2022-10-03T12:45:40.498Z,20.40
2022-10-03T12:48:19.156Z,20.40
2022-10-03T12:51:14.340Z,20.40
2022-10-03T12:54:11.210Z,20.40
2022-10-03T12:56:47.673Z,20.40
2022-10-03T12:59:40.781Z,20.30
2022-10-03T13:02:16.467Z,20.10
2022-10-03T13:05:21.820Z,20.00
2022-10-03T13:08:15.917Z,19.80
2022-10-03T13:10:48.192Z,19.60
2022-10-03T13:13:33.515Z,19.50
2022-10-03T13:16:23.895Z,19.40
2022-10-03T13:18:56.709Z,19.40
2022-10-03T13:21:50.872Z,19.40
2022-10-03T13:24:23.209Z,19.50
2022-10-03T13:26:54.519Z,19.80
2022-10-03T13:29:42.012Z,19.90
2022-10-03T13:32:24.317Z,20.10
2022-10-03T13:35:32.882Z,20.30
2022-10-03T13:38:07.580Z,20.20
2022-10-03T13:40:40.267Z,20.10
2022-10-03T13:43:11.098Z,20.00
2022-10-03T13:45:43.682Z,19.90
2022-10-03T13:48:27.473Z,19.70
2022-10-03T13:51:02.683Z,19.70
2022-10-03T13:53:56.774Z,19.60
2022-10-03T13:56:57.782Z,19.50
2022-10-03T13:59:36.042Z,19.40
2022-10-03T14:02:22.047Z,19.20
2022-10-03T14:05:33.068Z,19.10
2022-10-03T14:08:28.568Z,19.10
2022-10-03T14:10:59.152Z,19.00
2022-10-03T14:13:37.491Z,19.10
2022-10-03T14:16:10.888Z,19.20
2022-10-03T14:19:11.144Z,19.20
2022-10-03T14:22:11.283Z,19.20
2022-10-03T14:24:55.596Z,19.10
2022-10-03T14:27:46.874Z,19.10
2022-10-03T14:30:18.389Z,18.90
2022-10-03T14:32:56.055Z,18.90
2022-10-03T14:35:30.420Z,18.90
2022-10-03T14:38:57.905Z,18.80
2022-10-03T14:41:45.060Z,18.90
2022-10-03T14:44:21.163Z,18.90
2022-10-03T14:46:55.437Z,18.80
2022-10-03T14:49:53.537Z,18.70
2022-10-03T14:52:34.438Z,18.60
2022-10-03T14:55:27.669Z,18.50
2022-10-03T14:58:28.671Z,18.50
2022-10-03T15:01:04.625Z,18.50
2022-10-03T15:03:38.107Z,18.40
2022-10-03T15:06:10.916Z,18.40
2022-10-03T15:08:39.509Z,18.40
2022-10-03T15:11:07.682Z,18.50
2022-10-03T15:13:44.499Z,18.50
2022-10-03T15:16:17.737Z,18.50
2022-10-03T15:18:53.941Z,18.50
2022-10-03T15:21:21.992Z,18.40
2022-10-03T15:23:56.617Z,18.40
2022-10-03T15:26:24.826Z,18.30
2022-10-03T15:28:54.161Z,18.30
2022-10-03T15:31:45.945Z,18.20
2022-10-03T15:34:25.583Z,18.00
2022-10-03T15:37:01.450Z,18.00
2022-10-03T15:39:33.117Z,17.90
2022-10-03T15:42:11.031Z,17.80
2022-10-03T15:44:45.407Z,17.80
2022-10-03T15:47:28.324Z,17.80
2022-10-03T15:50:17.759Z,17.80
2022-10-03T15:53:12.422Z,17.80
2022-10-03T15:55:52.580Z,17.80
2022-10-03T15:58:28.888Z,17.80
2022-10-03T16:01:18.847Z,17.70
2022-10-03T16:03:56.283Z,17.70
2022-10-03T16:06:39.750Z,17.70
2022-10-03T16:09:15.930Z,17.60
2022-10-03T16:12:12.361Z,17.70
2022-10-03T16:15:07.913Z,17.60
2022-10-03T16:17:56.233Z,17.60
2022-10-03T16:20:29.032Z,17.50
2022-10-03T16:22:56.621Z,17.50
2022-10-03T16:25:39.078Z,17.50
2022-10-03T16:28:11.010Z,17.40
2022-10-03T16:30:43.824Z,17.30
2022-10-03T16:33:17.158Z,17.20
2022-10-03T16:35:45.458Z,17.10
2022-10-03T16:38:22.680Z,17.00
2022-10-03T16:40:54.927Z,16.90
2022-10-03T16:43:24.539Z,16.80
2022-10-03T16:45:52.991Z,16.70
2022-10-03T16:48:53.337Z,16.60
2022-10-03T16:51:24.295Z,16.60
2022-10-03T16:53:53.463Z,16.50
2022-10-03T16:56:31.619Z,16.40
2022-10-03T16:59:06.562Z,16.30
2022-10-03T17:01:40.839Z,16.20
2022-10-03T17:04:24.213Z,16.20
2022-10-03T17:06:55.433Z,16.10
2022-10-03T17:09:25.169Z,16.00
2022-10-03T17:11:57.063Z,16.00
2022-10-03T17:14:28.232Z,15.90
2022-10-03T17:17:02.866Z,15.80
2022-10-03T17:19:35.880Z,15.80
2022-10-03T17:22:19.898Z,15.80
2022-10-03T17:24:52.980Z,15.70
2022-10-03T17:27:29.879Z,15.70
2022-10-03T17:30:07.180Z,15.60
2022-10-03T17:32:40.621Z,15.60
2022-10-03T17:35:31.619Z,15.60
2022-10-03T17:38:44.593Z,15.60
2022-10-03T17:41:34.985Z,15.50
2022-10-03T17:44:20.163Z,15.50
2022-10-03T17:47:12.824Z,15.40
2022-10-03T17:49:52.287Z,15.40
2022-10-03T17:52:21.933Z,15.30
2022-10-03T17:54:54.148Z,15.20
2022-10-03T17:57:28.645Z,15.20
2022-10-03T18:00:32.092Z,15.10
2022-10-03T18:03:15.400Z,15.10
2022-10-03T18:05:47.286Z,15.00
2022-10-03T18:08:27.307Z,14.90
2022-10-03T18:10:56.430Z,14.90
2022-10-03T18:13:30.288Z,14.80
2022-10-03T18:16:11.186Z,14.80
2022-10-03T18:18:56.324Z,14.70
2022-10-03T18:21:50.299Z,14.70
2022-10-03T18:24:47.348Z,14.60
2022-10-03T18:27:32.524Z,14.60
2022-10-03T18:30:08.134Z,14.60
2022-10-03T18:32:39.474Z,14.60
2022-10-03T18:35:20.288Z,14.60
2022-10-03T18:37:54.131Z,14.50
2022-10-03T18:40:27.896Z,14.50
2022-10-03T18:42:55.111Z,14.50
2022-10-03T18:45:29.444Z,14.40
2022-10-03T18:48:26.091Z,14.40
2022-10-03T18:51:05.812Z,14.40
2022-10-03T18:53:37.862Z,14.40
2022-10-03T18:56:22.846Z,14.30
2022-10-03T18:59:13.107Z,14.30
2022-10-03T19:01:57.393Z,14.30
2022-10-03T19:04:38.563Z,14.30
2022-10-03T19:07:24.195Z,14.30
2022-10-03T19:10:02.835Z,14.30
2022-10-03T19:12:34.577Z,14.30
2022-10-03T19:15:42.418Z,14.30
2022-10-03T19:18:22.909Z,14.30
2022-10-03T19:20:57.450Z,14.30
2022-10-03T19:23:31.425Z,14.30
2022-10-03T19:26:04.941Z,14.30
2022-10-03T19:28:43.026Z,14.30
2022-10-03T19:31:21.555Z,14.30
2022-10-03T19:33:51.813Z,14.20
2022-10-03T19:36:25.348Z,14.20
2022-10-03T19:38:54.251Z,14.20
2022-10-03T19:41:34.349Z,14.20
2022-10-03T19:44:13.251Z,14.20
2022-10-03T19:47:01.479Z,14.20
2022-10-03T19:49:44.367Z,14.30
2022-10-03T19:52:34.361Z,14.20
2022-10-03T19:55:30.022Z,14.20
2022-10-03T19:57:58.700Z,14.30
2022-10-03T20:00:31.856Z,14.20
2022-10-03T20:03:40.124Z,14.20
2022-10-03T20:06:12.844Z,14.10
2022-10-03T20:08:56.936Z,14.20
2022-10-03T20:12:01.317Z,14.20
2022-10-03T20:14:40.874Z,14.20
2022-10-03T20:17:23.456Z,14.30
2022-10-03T20:19:54.456Z,14.10
2022-10-03T20:22:24.157Z,14.10
2022-10-03T20:24:51.720Z,14.10
2022-10-03T20:27:37.114Z,14.20
2022-10-03T20:30:03.728Z,14.10
2022-10-03T20:32:31.239Z,14.10
2022-10-03T20:35:00.632Z,14.10
2022-10-03T20:37:57.262Z,14.10
2022-10-03T20:40:30.968Z,14.10
2022-10-03T20:43:25.270Z,14.10
2022-10-03T20:46:03.891Z,14.00
2022-10-03T20:48:35.009Z,14.00
2022-10-03T20:51:01.738Z,14.00
2022-10-03T20:53:31.238Z,14.00
2022-10-03T20:56:06.742Z,13.90
2022-10-03T20:58:40.135Z,14.00
2022-10-03T21:01:16.530Z,13.90
2022-10-03T21:04:04.980Z,14.00
2022-10-03T21:06:52.231Z,13.90
2022-10-03T21:09:21.782Z,13.90
2022-10-03T21:11:54.437Z,13.80
2022-10-03T21:14:29.144Z,13.80
2022-10-03T21:16:56.645Z,13.80
2022-10-03T21:19:47.238Z,13.80
2022-10-03T21:22:17.235Z,13.80
2022-10-03T21:24:56.565Z,13.80
2022-10-03T21:27:24.316Z,13.80
2022-10-03T21:29:53.909Z,13.80
2022-10-03T21:32:48.589Z,13.70
2022-10-03T21:35:30.258Z,13.70
2022-10-03T21:38:02.923Z,13.60
2022-10-03T21:40:49.330Z,13.60
2022-10-03T21:43:41.232Z,13.60
2022-10-03T21:46:25.036Z,13.60
2022-10-03T21:49:20.089Z,13.60
2022-10-03T21:51:49.696Z,13.60
2022-10-03T21:54:42.724Z,13.70
2022-10-03T21:57:25.856Z,13.70
2022-10-03T22:00:21.946Z,13.70
2022-10-03T22:03:13.358Z,13.70
2022-10-03T22:05:45.686Z,13.70
2022-10-03T22:08:34.985Z,13.70
2022-10-03T22:11:12.066Z,13.70
2022-10-03T22:13:43.761Z,13.70
2022-10-03T22:16:39.965Z,13.70
2022-10-03T22:19:09.298Z,13.70
2022-10-03T22:21:52.424Z,13.70
2022-10-03T22:24:37.927Z,13.70
2022-10-03T22:27:20.495Z,13.70
2022-10-03T22:30:05.923Z,13.70
2022-10-03T22:32:36.632Z,13.70
2022-10-03T22:35:36.604Z,13.70
2022-10-03T22:38:04.049Z,13.70
2022-10-03T22:40:32.296Z,13.70
2022-10-03T22:43:03.011Z,13.70
2022-10-03T22:45:32.829Z,13.80
2022-10-03T22:48:04.037Z,13.70
2022-10-03T22:50:34.261Z,13.70
2022-10-03T22:53:03.413Z,13.70
2022-10-03T22:55:31.560Z,13.70
2022-10-03T22:58:00.822Z,13.70
2022-10-03T23:00:35.459Z,13.70
2022-10-03T23:03:20.122Z,13.70
2022-10-03T23:05:55.725Z,13.70
2022-10-03T23:08:30.821Z,13.70
2022-10-03T23:11:04.059Z,13.80
2022-10-03T23:13:40.679Z,13.70
2022-10-03T23:16:15.458Z,13.70
2022-10-03T23:18:57.713Z,13.80
2022-10-03T23:21:25.173Z,13.70
2022-10-03T23:24:25.453Z,13.80
2022-10-03T23:27:13.478Z,13.80
2022-10-03T23:29:40.596Z,13.70
2022-10-03T23:32:09.216Z,13.80
2022-10-03T23:34:38.820Z,13.70
2022-10-03T23:37:11.741Z,13.70
2022-10-03T23:39:39.939Z,13.70
2022-10-03T23:42:18.107Z,13.80
2022-10-03T23:44:50.600Z,13.80
2022-10-03T23:47:20.684Z,13.70
2022-10-03T23:49:50.113Z,13.80
2022-10-03T23:52:28.912Z,13.70
2022-10-03T23:54:59.976Z,13.70
2022-10-03T23:57:33.826Z,13.70
